Terminal Aerodrome Forecast
Issued by NWS

Current Version | Previous Version | Graphics & Text | Print | Product List | Glossary On
Versions: 1 2 3 4 5 6 7 8 9 10 11 12 13 14 15 16 17 18 19 20 21 22 23
746
FTUS41 KRLX 230244 AAA
TAFCKB
TAF AMD
KCKB 230244Z 2303/2324 00000KT P6SM FEW050
     FM230900 00000KT 2SM BR SKC
     FM231200 00000KT P6SM SKC
     FM231800 21004KT P6SM FEW050=

USA.gov is the U.S. government's official web portal to all federal, state and local government web resources and services.